Saturday, April 30, 2016
13:12 UTC
  |  Log In   |  Register Free
Airport Search:

De Kalb County Airport
(KGWB)

De Kalb County Airport Diagram
No Airport Diagram Available

FAA data valid effective Mar 31 2016 - May 26 2016 (unless otherwise noted).

 
 
 
 
 
 
 
 
 
 
 
 
 
 
Current Aviation Weather for KGWB

Weather Summary


The most recent METAR observation for GWB was updated at: 12:55 UTC
METAR for KGWB is not available. Closest METAR is for KFWA
KGWB  (most recent observation was updatred at 30:12 UTC)
301255Z AUTO 10009KT 10SM CLR 07/01 A3010 RMK AO2

KFWA  (20.6 nm NE)   (most recent observation was updated at 30:12 UTC)
301254Z 08010KT 10SM BKN150 BKN250 07/03 A3010 RMK AO2 SLP194 T00670033

KDFI  (28.7 nm SW)   (most recent observation was updated at 30:12 UTC)
301253Z AUTO 12009KT 10SM CLR 09/01 A3012 RMK AO2 SLP203 T00890011

TAF for KGWB is not available.
KFWA  (20.6 nm NE)   (most recent observation was updatred at 30:11 UTC)
301135Z 3012/0112 08010KT P6SM BKN100 FM301600 08012G20KT P6SM -RA OVC040 FM301800 09012G20KT 3SM -RA BR OVC025 FM302000 09012G20KT 3SM -RA BR OVC010 FM302300 08012KT 2SM -RA BR OVC006 FM010400 06008KT 2SM BR OVC003


GlobalAir.com is loading additional information.
 Current Weather at GWB
43.0 F° (6.0 C°)

East winds at 5.8 mph
Pressure:
30.13 in
Humidity:
71%
Wind:
East at 5.8 mph
Dew Point:
33.8 F° (1.0 C°)
Visibility:
10.00 mi
GWB NOAA Radar




Find All Airport Services Find A Hotel Find A Rental Car Find A Golf Course Find A Restaurant $100 Hamburger



Airport Weather Forecast for KGWB

Translated METAR for KGWB (1255 UTC)
METAR:
KGWB 301255Z AUTO 10009KT 10SM CLR 07/01 A3010 RMK AO2
Conditions at:
KGWB (De Kalb County, IN) observed 1255 UTC 30 April 2016
Temperature:
7°C (44.6°F)
Dewpoint:
1°C (33.8°F) [RH = 65.6]
Pressure:
30.1 inches Hg (1019.3 mb)
Winds:
from the E (100 degrees) at 10.4 mph (9 knots: 4.6 m/s)
Visibility:
10 mile(s)
Ceiling:
at least 12,000 feet AGL
Clouds:
Clear below 12,000 feet AGL
Remarks:
site is un-manned
site is automated and HAS a precipitation sensor

FBO's on the Field
FBO Company Facility Photos Services Transportation Aviation Fuel Prices: Prices include tax
Catering Weather Repair Courtesy Rental Type 100LL JetA JetA+ MOGAS 8087
 
Century Aviation

This FBO has not yet been rated
FS:Shell
Last Updated: Apr-15
Login to update fuel prices
SS:
Contact Century AviationMore FBO Information
 
Add another FBO Facility Photos Catering Weather Repair Courtesy Rental Type 100LL JetA JetA+ MOGAS 8087
Services Transportation Aviation Fuel Prices: Prices include tax


model-print
model-print
model-print
model-print